Time;durP1;ratioP1;P1;durP2;ratioP2;P2;SDS_P1;SDS_P2;PMS_P1;PMS_P2;Temp;Humidity;BMP_temperature;BMP_pressure;BME280_temperature;BME280_humidity;BME280_pressure;Samples;Min_cycle;Max_cycle;Signal;HPM_P1;HPM_P2
2021/12/27 00:01:46;;;;;;;14.10;6.35;;;;;;;-0.64;54.44;100077.16;5098206;28;20027;-71
2021/12/27 00:04:11;;;;;;;13.02;6.18;;;;;;;-0.62;54.80;100077.94;5097260;28;20028;-72
2021/12/27 00:06:37;;;;;;;13.10;6.07;;;;;;;-0.64;54.62;100075.38;5094883;28;20084;-73
2021/12/27 00:09:02;;;;;;;14.55;6.25;;;;;;;-0.63;54.98;100081.50;5098764;28;20023;-70
2021/12/27 00:11:28;;;;;;;12.98;6.32;;;;;;;-0.66;55.01;100081.63;5105354;28;20039;-72
2021/12/27 00:13:53;;;;;;;10.63;6.13;;;;;;;-0.73;55.11;100069.69;5100137;28;20024;-71
2021/12/27 00:16:19;;;;;;;11.98;6.40;;;;;;;-0.82;55.14;100062.19;5094378;28;20020;-71
2021/12/27 00:18:44;;;;;;;10.75;5.72;;;;;;;-0.77;55.31;100061.06;5100633;28;20746;-71
2021/12/27 00:21:10;;;;;;;13.00;6.85;;;;;;;-0.73;55.81;100064.41;5094630;28;20483;-71
2021/12/27 00:23:36;;;;;;;12.75;5.97;;;;;;;-0.74;55.88;100063.56;5099141;28;20072;-72
2021/12/27 00:26:02;;;;;;;16.17;6.97;;;;;;;-0.82;55.76;100059.56;5096425;28;20415;-71
2021/12/27 00:28:27;;;;;;;12.98;6.90;;;;;;;-0.82;55.54;100056.94;5102256;28;20028;-72
2021/12/27 00:30:53;;;;;;;12.88;6.32;;;;;;;-0.79;55.67;100062.06;5100148;28;20425;-70
2021/12/27 00:33:18;;;;;;;17.15;7.35;;;;;;;-0.84;55.63;100059.63;5090527;28;20036;-68
2021/12/27 00:35:46;;;;;;;16.75;6.90;;;;;;;-0.78;55.45;100074.28;5106613;28;20035;-67
2021/12/27 00:38:11;;;;;;;13.13;6.50;;;;;;;-0.82;55.10;100073.59;5087574;28;20149;-68
2021/12/27 00:40:37;;;;;;;16.08;7.18;;;;;;;-0.86;55.21;100065.91;5101581;28;20118;-71
2021/12/27 00:43:03;;;;;;;13.25;6.18;;;;;;;-0.85;55.43;100081.63;5102310;28;20024;-72
2021/12/27 00:45:28;;;;;;;12.57;6.05;;;;;;;-0.91;55.27;100066.09;5093582;28;20601;-72
2021/12/27 00:47:54;;;;;;;12.02;6.53;;;;;;;-0.94;55.43;100057.47;5104278;28;20111;-71
2021/12/27 00:50:20;;;;;;;16.83;6.57;;;;;;;-0.85;55.30;100076.38;5096277;28;20026;-67
2021/12/27 00:52:46;;;;;;;13.38;6.72;;;;;;;-0.90;55.78;100066.97;5107956;28;20058;-67
2021/12/27 00:55:15;;;;;;;20.30;7.35;;;;;;;-0.91;55.39;100079.28;5101431;28;20028;-67
2021/12/27 00:57:40;;;;;;;12.00;6.82;;;;;;;-0.96;55.47;100068.13;5105312;28;20039;-67
2021/12/27 01:00:12;;;;;;;15.95;6.82;;;;;;;-0.88;55.59;100089.66;5100640;28;20037;-68
2021/12/27 01:02:39;;;;;;;12.27;6.43;;;;;;;-0.95;55.50;100075.06;5098205;28;20036;-68
2021/12/27 01:05:05;;;;;;;14.38;6.60;;;;;;;-0.89;55.34;100092.34;5100329;28;20458;-68
2021/12/27 01:07:30;;;;;;;14.45;7.00;;;;;;;-0.97;55.55;100092.69;5092581;28;20036;-67
2021/12/27 01:17:43;;;;;;;14.80;6.75;;;;;;;-0.97;55.33;100097.97;5103492;28;20042;-68
2021/12/27 01:20:13;;;;;;;13.52;7.22;;;;;;;-0.91;55.65;100109.97;5097611;28;20031;-70
2021/12/27 01:22:39;;;;;;;14.57;7.22;;;;;;;-1.02;55.32;100081.53;5098962;28;20051;-70
2021/12/27 01:25:09;;;;;;;14.60;7.15;;;;;;;-0.91;55.31;100102.94;5108642;28;20025;-71
2021/12/27 01:27:35;;;;;;;14.75;7.38;;;;;;;-0.90;55.17;100091.50;5102302;28;20023;-71
2021/12/27 01:30:04;;;;;;;14.57;7.18;;;;;;;-0.97;55.61;100079.53;5087399;28;20483;-71
2021/12/27 01:32:35;;;;;;;13.38;7.03;;;;;;;-0.89;55.54;100097.63;5099219;28;20028;-71
2021/12/27 01:35:00;;;;;;;13.18;6.88;;;;;;;-0.94;55.20;100086.44;5098841;28;20072;-68
2021/12/27 01:37:26;;;;;;;17.13;7.38;;;;;;;-1.02;55.52;100062.25;5086452;28;20375;-68
2021/12/27 01:39:51;;;;;;;14.63;7.80;;;;;;;-0.86;55.37;100097.47;5092710;28;20024;-67
2021/12/27 01:42:17;;;;;;;15.57;7.28;;;;;;;-0.91;55.60;100087.16;5095053;28;20681;-68
2021/12/27 01:44:42;;;;;;;13.88;6.88;;;;;;;-0.95;55.51;100076.84;5098503;28;20375;-68
2021/12/27 01:47:09;;;;;;;18.70;7.53;;;;;;;-0.92;55.70;100079.34;5100361;28;20028;-68
2021/12/27 01:49:35;;;;;;;17.30;7.45;;;;;;;-0.84;55.12;100088.59;5094453;28;20035;-68
2021/12/27 01:52:01;;;;;;;14.82;7.22;;;;;;;-0.84;55.32;100088.59;5094512;28;20052;-68
2021/12/27 01:54:26;;;;;;;15.45;7.88;;;;;;;-0.87;55.26;100080.81;5094994;28;20031;-67
2021/12/27 01:56:52;;;;;;;14.27;7.40;;;;;;;-0.86;54.95;100077.28;5106049;28;20376;-66
2021/12/27 01:59:18;;;;;;;14.70;7.05;;;;;;;-0.88;55.35;100073.88;5097408;28;20023;-68
2021/12/27 02:01:44;;;;;;;15.27;7.07;;;;;;;-0.87;55.23;100066.84;5097879;28;20378;-68
2021/12/27 02:04:10;;;;;;;17.58;7.93;;;;;;;-0.92;54.84;100071.44;5101402;28;20027;-69
2021/12/27 02:06:36;;;;;;;14.48;7.47;;;;;;;-0.91;55.21;100071.38;5104591;28;20059;-69
2021/12/27 02:09:04;;;;;;;14.68;7.55;;;;;;;-0.91;54.87;100070.50;5097243;28;20031;-69
2021/12/27 02:11:34;;;;;;;15.45;7.60;;;;;;;-0.86;54.75;100074.66;5087566;28;20024;-68
2021/12/27 02:14:04;;;;;;;14.95;7.28;;;;;;;-0.88;54.85;100075.63;5099937;28;20384;-68
2021/12/27 02:16:30;;;;;;;14.73;7.72;;;;;;;-0.88;55.01;100073.88;5101366;28;20034;-68
2021/12/27 02:18:56;;;;;;;16.17;7.85;;;;;;;-0.85;55.04;100075.50;5096312;28;20046;-68
2021/12/27 02:21:24;;;;;;;19.20;7.03;;;;;;;-0.82;55.47;100078.00;5103892;28;20033;-68
2021/12/27 02:23:53;;;;;;;21.50;8.10;;;;;;;-0.85;55.42;100072.88;5088067;28;20043;-69
2021/12/27 02:26:18;;;;;;;16.73;7.25;;;;;;;-0.82;55.65;100073.59;5102482;28;20019;-68
2021/12/27 02:28:44;;;;;;;13.82;7.80;;;;;;;-0.83;55.58;100073.66;5099506;28;20020;-68
2021/12/27 02:31:10;;;;;;;16.20;7.45;;;;;;;-0.85;55.61;100068.47;5101468;28;20386;-67
2021/12/27 02:33:37;;;;;;;14.52;7.65;;;;;;;-0.84;55.30;100070.16;5096028;28;20032;-68
2021/12/27 02:36:05;;;;;;;20.52;7.90;;;;;;;-0.81;55.27;100069.19;5086434;28;20730;-68
2021/12/27 02:38:33;;;;;;;14.73;7.18;;;;;;;-0.81;55.37;100071.81;5097851;28;20039;-67
2021/12/27 02:40:59;;;;;;;17.50;8.10;;;;;;;-0.82;55.43;100064.84;5098584;28;20059;-68
2021/12/27 02:43:27;;;;;;;14.98;7.53;;;;;;;-0.81;55.25;100062.13;5085195;28;20499;-68
2021/12/27 02:45:59;;;;;;;15.65;7.85;;;;;;;-0.86;55.30;100050.09;5086825;28;20604;-68
2021/12/27 02:48:27;;;;;;;14.68;7.65;;;;;;;-0.84;55.24;100054.38;5096746;28;20015;-67
2021/12/27 02:50:54;;;;;;;15.63;7.70;;;;;;;-0.81;55.07;100063.94;5105654;28;20138;-67
2021/12/27 02:53:20;;;;;;;14.52;7.55;;;;;;;-0.94;55.31;100037.28;5106551;28;20403;-68
2021/12/27 02:55:51;;;;;;;15.23;7.60;;;;;;;-0.82;55.07;100051.66;5096995;28;20031;-68
2021/12/27 02:58:16;;;;;;;17.75;8.68;;;;;;;-0.85;55.47;100044.78;5092665;28;20111;-67
2021/12/27 03:00:50;;;;;;;15.40;7.78;;;;;;;-0.85;55.46;100051.81;5094689;28;20176;-69
2021/12/27 03:03:16;;;;;;;15.60;7.35;;;;;;;-0.92;55.53;100039.84;5085982;28;20032;-69
2021/12/27 03:05:43;;;;;;;19.60;8.38;;;;;;;-0.88;55.14;100051.94;5087747;28;20086;-67
2021/12/27 03:08:13;;;;;;;17.52;8.35;;;;;;;-0.88;55.52;100042.28;5098813;28;20486;-68
2021/12/27 03:10:41;;;;;;;14.98;7.43;;;;;;;-0.85;55.60;100046.53;5090405;28;20040;-67
2021/12/27 03:13:06;;;;;;;18.83;7.57;;;;;;;-0.88;55.77;100034.38;5094815;28;20482;-67
2021/12/27 03:15:32;;;;;;;19.70;9.27;;;;;;;-0.88;55.82;100033.53;5096115;28;20032;-68
2021/12/27 03:17:57;;;;;;;15.80;7.97;;;;;;;-0.91;55.55;100033.66;5093826;28;20124;-68
2021/12/27 03:20:27;;;;;;;13.57;7.55;;;;;;;-0.85;55.81;100051.81;5104904;28;20035;-69
2021/12/27 03:22:53;;;;;;;14.85;8.07;;;;;;;-0.83;55.53;100044.72;5097870;28;20063;-69
2021/12/27 03:25:23;;;;;;;16.13;8.30;;;;;;;-0.88;55.91;100046.69;5085664;28;20069;-67
2021/12/27 03:27:49;;;;;;;17.52;8.40;;;;;;;-0.87;56.11;100049.25;5088862;28;20051;-68
2021/12/27 03:30:22;;;;;;;16.83;7.40;;;;;;;-0.89;56.26;100034.47;5104603;28;20024;-69
2021/12/27 03:32:48;;;;;;;19.02;8.82;;;;;;;-1.00;56.55;100018.31;5092878;28;20503;-69
2021/12/27 03:35:18;;;;;;;19.02;8.25;;;;;;;-0.90;57.42;100038.03;5107390;28;20038;-68
2021/12/27 03:37:47;;;;;;;20.50;9.48;;;;;;;-0.89;57.14;100043.22;5101683;28;20484;-69
2021/12/27 03:40:16;;;;;;;17.40;8.25;;;;;;;-0.92;56.65;100039.84;5101793;28;20042;-68
2021/12/27 03:42:42;;;;;;;18.55;8.55;;;;;;;-0.86;57.06;100034.31;5102588;28;20024;-68
2021/12/27 03:45:09;;;;;;;16.08;8.45;;;;;;;-0.90;56.87;100028.31;5100206;28;20036;-68
2021/12/27 03:47:35;;;;;;;18.30;8.60;;;;;;;-0.88;56.73;100036.16;5105304;28;20028;-67
2021/12/27 03:50:00;;;;;;;17.52;8.70;;;;;;;-0.88;56.63;100037.03;5107904;28;20570;-67
2021/12/27 03:52:26;;;;;;;18.25;8.52;;;;;;;-0.89;56.85;100037.94;5109679;28;20040;-67
2021/12/27 03:54:51;;;;;;;17.52;9.48;;;;;;;-0.91;57.07;100021.38;5110407;28;20042;-67
2021/12/27 03:57:17;;;;;;;18.52;8.57;;;;;;;-0.90;56.86;100038.84;5098837;28;20036;-67
2021/12/27 04:02:13;;;;;;;17.95;8.43;;;;;;;-0.88;56.63;100025.63;5100247;28;20028;-66
2021/12/27 04:04:41;;;;;;;15.90;8.48;;;;;;;-0.88;56.57;100025.63;5092659;28;20357;-67
2021/12/27 04:07:09;;;;;;;15.85;8.13;;;;;;;-0.87;57.09;100027.34;5094518;28;20024;-67
2021/12/27 04:09:36;;;;;;;18.48;8.35;;;;;;;-0.90;56.66;100023.06;5100058;28;20429;-68
2021/12/27 04:12:02;;;;;;;19.02;8.60;;;;;;;-0.86;56.39;100029.06;5097258;28;20470;-67
2021/12/27 04:14:27;;;;;;;18.20;8.43;;;;;;;-0.90;55.74;100028.31;5093185;28;20152;-67
2021/12/27 04:16:53;;;;;;;14.75;7.85;;;;;;;-0.87;56.63;100024.72;5097448;28;20047;-66
2021/12/27 04:19:19;;;;;;;16.90;8.23;;;;;;;-0.94;56.36;100007.47;5109393;28;20038;-67
2021/12/27 04:21:45;;;;;;;15.15;8.02;;;;;;;-0.86;56.16;100029.91;5109704;28;20035;-68
2021/12/27 04:24:10;;;;;;;17.25;8.82;;;;;;;-0.90;55.70;100025.69;5109499;28;20043;-67
2021/12/27 04:26:36;;;;;;;14.10;7.80;;;;;;;-0.87;55.96;100037.88;5105413;28;20032;-67
2021/12/27 04:29:03;;;;;;;20.25;8.48;;;;;;;-0.83;55.70;100031.53;5108690;28;20015;-67
2021/12/27 04:31:28;;;;;;;17.05;7.63;;;;;;;-0.89;56.02;100023.94;5109815;27;20486;-68
2021/12/27 04:33:54;;;;;;;14.63;8.10;;;;;;;-0.88;56.29;100023.84;5109609;28;20028;-68
2021/12/27 04:36:19;;;;;;;15.18;7.90;;;;;;;-0.88;57.02;100028.25;5094889;28;20020;-71
2021/12/27 04:38:45;;;;;;;17.80;8.77;;;;;;;-0.90;56.78;100022.22;5102376;28;20437;-71
2021/12/27 04:41:14;;;;;;;18.50;8.80;;;;;;;-0.86;57.21;100031.69;5105673;28;20020;-72
2021/12/27 04:43:40;;;;;;;18.85;8.77;;;;;;;-0.86;56.83;100031.69;5095385;28;20028;-71
2021/12/27 04:46:05;;;;;;;18.17;8.95;;;;;;;-0.86;57.06;100032.56;5105348;28;20011;-71
2021/12/27 04:48:31;;;;;;;17.02;8.98;;;;;;;-0.89;57.38;100030.06;5100188;28;20028;-67
2021/12/27 04:50:57;;;;;;;18.67;8.55;;;;;;;-0.85;57.35;100036.00;5095128;28;20106;-67
2021/12/27 04:53:23;;;;;;;17.52;8.15;;;;;;;-0.82;56.37;100044.63;5099154;28;20435;-66
2021/12/27 04:55:49;;;;;;;21.33;8.90;;;;;;;-0.84;56.26;100038.56;5097533;28;20032;-69
2021/12/27 04:58:16;;;;;;;16.38;8.77;;;;;;;-0.83;56.44;100042.06;5099690;28;20088;-68
2021/12/27 05:00:42;;;;;;;13.90;7.78;;;;;;;-0.86;56.15;100036.94;5099312;27;20102;-68
2021/12/27 05:03:07;;;;;;;19.10;8.02;;;;;;;-0.83;56.74;100032.41;5101037;28;20122;-67
2021/12/27 05:05:33;;;;;;;20.70;8.13;;;;;;;-0.85;56.98;100030.75;5096648;28;20510;-67
2021/12/27 05:08:00;;;;;;;15.57;8.13;;;;;;;-0.89;57.28;100018.66;5093396;28;20031;-68
2021/12/27 05:10:27;;;;;;;17.92;8.60;;;;;;;-0.81;56.88;100027.91;5097212;28;20028;-68
2021/12/27 05:12:53;;;;;;;21.70;9.27;;;;;;;-0.84;56.97;100027.22;5102767;28;20036;-68
2021/12/27 05:15:18;;;;;;;16.50;8.13;;;;;;;-0.83;56.87;100027.16;5091827;28;20032;-68
2021/12/27 05:17:44;;;;;;;15.75;7.90;;;;;;;-0.80;56.76;100039.31;5096612;28;20486;-68
2021/12/27 05:20:10;;;;;;;15.32;7.97;;;;;;;-0.78;56.71;100042.69;5100433;28;20463;-68
2021/12/27 05:22:36;;;;;;;13.65;7.72;;;;;;;-0.84;56.95;100033.31;5098960;28;20501;-67
2021/12/27 05:25:03;;;;;;;16.52;8.27;;;;;;;-0.86;56.78;100029.06;5096009;28;20059;-68
2021/12/27 05:27:29;;;;;;;13.65;7.82;;;;;;;-0.80;57.23;100034.03;5101626;28;20036;-68
2021/12/27 05:29:54;;;;;;;17.90;8.68;;;;;;;-0.79;57.13;100036.59;5100576;28;20036;-67
2021/12/27 05:32:20;;;;;;;19.38;8.70;;;;;;;-0.82;57.79;100042.00;5094593;27;20051;-68
2021/12/27 05:34:45;;;;;;;19.95;8.05;;;;;;;-0.77;57.65;100041.78;5097801;28;20046;-68
2021/12/27 05:37:10;;;;;;;17.02;8.23;;;;;;;-0.77;57.49;100042.63;5107729;28;20038;-67
2021/12/27 05:39:36;;;;;;;16.77;8.60;;;;;;;-0.83;57.61;100032.41;5106202;28;20490;-68
2021/12/27 05:42:02;;;;;;;18.55;8.93;;;;;;;-0.76;57.89;100043.50;5097398;28;20145;-68
2021/12/27 05:44:28;;;;;;;19.35;8.52;;;;;;;-0.78;57.63;100029.53;5099625;27;20032;-68
2021/12/27 05:46:56;;;;;;;17.90;8.77;;;;;;;-0.76;57.51;100047.00;5098466;28;20043;-68
2021/12/27 05:49:23;;;;;;;17.48;8.20;;;;;;;-0.73;57.89;100052.13;5103014;28;20024;-68
2021/12/27 05:51:48;;;;;;;18.77;8.23;;;;;;;-0.77;58.00;100044.44;5092817;28;20059;-67
2021/12/27 05:54:14;;;;;;;15.07;7.55;;;;;;;-0.79;57.98;100044.50;5095794;28;20031;-67
2021/12/27 05:56:43;;;;;;;17.75;8.05;;;;;;;-0.69;57.98;100044.91;5100816;28;20589;-68
2021/12/27 05:59:12;;;;;;;15.88;8.70;;;;;;;-0.72;57.75;100038.03;5097573;28;20130;-68
2021/12/27 06:01:38;;;;;;;19.35;8.82;;;;;;;-0.71;57.95;100041.53;5100818;28;20028;-68
2021/12/27 06:04:15;;;;;;;18.15;9.13;;;;;;;-0.70;58.33;100057.25;5104419;28;20096;-70
2021/12/27 06:06:41;;;;;;;20.92;9.48;;;;;;;-0.77;58.15;100033.91;5122882;22;22149;-67
2021/12/27 06:09:06;;;;;;;22.08;10.40;;;;;;;-0.70;58.23;100038.81;5061552;28;20060;-67
2021/12/27 06:11:32;;;;;;;21.02;10.50;;;;;;;-0.70;57.96;100035.31;5060761;28;20119;-67
2021/12/27 06:13:58;;;;;;;20.27;9.73;;;;;;;-0.67;58.27;100032.53;5051852;28;20017;-67
2021/12/27 06:16:24;;;;;;;19.92;9.65;;;;;;;-0.65;58.48;100039.44;5069141;28;20043;-66
2021/12/27 06:18:49;;;;;;;22.75;10.20;;;;;;;-0.71;58.52;100033.63;5062336;28;20025;-67
2021/12/27 06:21:15;;;;;;;18.67;9.38;;;;;;;-0.74;58.82;100017.97;5070391;28;20021;-67
2021/12/27 06:23:42;;;;;;;20.42;9.25;;;;;;;-0.76;58.80;100009.28;5052973;28;20508;-67
2021/12/27 06:26:07;;;;;;;19.38;9.65;;;;;;;-0.66;58.79;100021.06;5070990;28;20021;-67
2021/12/27 06:28:34;;;;;;;22.45;10.75;;;;;;;-0.66;59.39;100011.41;5070921;28;20032;-71
2021/12/27 06:31:03;;;;;;;24.17;11.30;;;;;;;-0.71;59.64;100002.03;5073104;28;20473;-73
2021/12/27 06:33:29;;;;;;;21.52;10.70;;;;;;;-0.69;59.91;100010.69;5055107;28;20040;-73
2021/12/27 06:35:55;;;;;;;19.35;9.73;;;;;;;-0.68;59.47;100007.16;5055174;28;20031;-73
2021/12/27 06:38:21;;;;;;;17.50;9.20;;;;;;;-0.67;59.30;100011.47;5073082;28;20094;-73
2021/12/27 06:40:51;;;;;;;24.23;9.70;;;;;;;-0.67;59.71;100008.84;5073131;28;20025;-72
2021/12/27 06:43:17;;;;;;;17.52;9.40;;;;;;;-0.65;60.04;100012.25;5073078;28;20090;-73
2021/12/27 06:45:43;;;;;;;19.75;9.90;;;;;;;-0.68;60.13;100002.72;5073022;28;20473;-72
2021/12/27 06:48:09;;;;;;;22.30;9.90;;;;;;;-0.66;60.29;100005.28;5072832;28;20036;-73
2021/12/27 06:50:35;;;;;;;22.10;10.57;;;;;;;-0.70;60.54;100001.97;5072831;28;20028;-73
2021/12/27 06:53:20;;;;;;;23.17;10.73;;;;;;;-0.65;60.54;100004.34;5072975;28;20103;-73
2021/12/27 06:55:47;;;;;;;25.45;11.73;;;;;;;-0.66;60.70;100003.50;5072737;28;20058;-73
2021/12/27 06:58:13;;;;;;;24.98;11.85;;;;;;;-0.61;60.85;100000.66;5054798;28;20059;-73
2021/12/27 07:00:39;;;;;;;25.52;11.52;;;;;;;-0.71;61.26;99987.06;5054818;28;20017;-74
2021/12/27 07:03:10;;;;;;;23.98;10.57;;;;;;;-0.60;61.09;100002.34;5074406;28;20373;-73
2021/12/27 07:05:35;;;;;;;23.00;11.07;;;;;;;-0.65;61.44;99985.91;5076743;28;20052;-72
2021/12/27 07:08:00;;;;;;;19.20;10.25;;;;;;;-0.65;61.79;99985.91;5076900;28;20032;-72
2021/12/27 07:10:26;;;;;;;20.80;10.80;;;;;;;-0.67;61.53;99978.09;5076690;28;20025;-72
2021/12/27 07:12:52;;;;;;;21.20;10.68;;;;;;;-0.61;61.07;99990.13;5076914;28;20039;-73
2021/12/27 07:15:17;;;;;;;22.17;10.90;;;;;;;-0.68;61.78;99972.94;5076531;28;20032;-72
2021/12/27 07:17:43;;;;;;;21.27;10.43;;;;;;;-0.66;61.55;99973.69;5076624;28;20028;-72
2021/12/27 07:20:09;;;;;;;21.60;10.88;;;;;;;-0.58;61.96;99982.09;5076543;28;20028;-73
2021/12/27 07:22:35;;;;;;;22.50;11.32;;;;;;;-0.59;61.77;99983.84;5076577;28;20419;-73
2021/12/27 07:25:01;;;;;;;22.20;11.50;;;;;;;-0.59;61.60;99978.59;5076566;28;20111;-72
2021/12/27 07:27:26;;;;;;;24.60;11.30;;;;;;;-0.56;61.78;99982.84;5061017;28;20104;-73
2021/12/27 07:29:53;;;;;;;26.63;11.73;;;;;;;-0.54;61.84;99978.38;5060098;28;20506;-73
2021/12/27 07:32:19;;;;;;;21.20;11.88;;;;;;;-0.60;62.22;99966.34;5076124;28;20060;-72
2021/12/27 07:34:44;;;;;;;22.08;11.05;;;;;;;-0.65;62.20;99959.59;5075888;28;20086;-72
2021/12/27 07:37:15;;;;;;;21.33;10.88;;;;;;;-0.71;61.82;99952.00;5076120;28;20039;-74
2021/12/27 07:39:41;;;;;;;18.27;10.15;;;;;;;-0.61;61.65;99958.53;5076138;28;20479;-73
2021/12/27 07:42:06;;;;;;;20.15;11.10;;;;;;;-0.62;61.94;99965.56;5076010;28;20091;-72
2021/12/27 07:44:32;;;;;;;20.33;10.40;;;;;;;-0.55;62.47;99972.25;5075776;28;20202;-72
2021/12/27 07:46:58;;;;;;;23.63;10.57;;;;;;;-0.54;62.95;99975.75;5075873;28;20453;-71
2021/12/27 07:49:23;;;;;;;19.13;10.43;;;;;;;-0.54;63.37;99973.94;5057724;28;20492;-70
2021/12/27 07:51:48;;;;;;;20.13;10.30;;;;;;;-0.53;64.09;99974.81;5075729;28;20028;-72
2021/12/27 07:54:14;;;;;;;21.85;9.75;;;;;;;-0.49;64.54;99965.81;5075641;28;20103;-71
2021/12/27 07:56:40;;;;;;;20.33;9.48;;;;;;;-0.51;64.51;99965.88;5057924;28;20495;-72
2021/12/27 07:59:06;;;;;;;19.52;9.25;;;;;;;-0.51;63.71;99968.53;5075337;28;20104;-72
2021/12/27 08:01:36;;;;;;;18.08;9.43;;;;;;;-0.54;63.80;99954.66;5075523;28;20111;-72
2021/12/27 08:04:03;;;;;;;19.85;8.95;;;;;;;-0.51;63.61;99967.69;5075496;28;20040;-71
2021/12/27 08:06:29;;;;;;;19.02;9.75;;;;;;;-0.48;64.13;99978.91;5075014;28;20045;-71
2021/12/27 08:08:55;;;;;;;19.80;9.35;;;;;;;-0.51;64.64;99972.97;5075368;28;20370;-72
2021/12/27 08:11:21;;;;;;;20.17;9.38;;;;;;;-0.49;64.50;99981.63;5075218;28;20032;-71
2021/12/27 08:13:47;;;;;;;15.15;8.50;;;;;;;-0.50;65.22;99974.66;5074692;28;20032;-73
2021/12/27 08:16:12;;;;;;;17.90;9.27;;;;;;;-0.50;65.40;99974.66;5074645;28;20054;-72
2021/12/27 08:18:41;;;;;;;17.70;8.88;;;;;;;-0.49;65.69;99971.94;5075314;28;20029;-73
2021/12/27 08:21:16;;;;;;;23.65;10.02;;;;;;;-0.48;65.81;99973.66;5075099;28;20066;-72
2021/12/27 08:23:42;;;;;;;16.38;8.50;;;;;;;-0.53;66.03;99967.75;5057569;28;20051;-72
2021/12/27 08:26:08;;;;;;;15.38;8.73;;;;;;;-0.48;66.47;99978.91;5075241;28;20020;-72
2021/12/27 08:28:33;;;;;;;16.65;8.30;;;;;;;-0.48;67.47;99981.53;5074939;28;20020;-71
2021/12/27 08:30:59;;;;;;;18.25;9.35;;;;;;;-0.43;67.63;99976.06;5075195;28;20078;-71
2021/12/27 08:33:24;;;;;;;16.75;8.82;;;;;;;-0.46;68.24;99969.16;5074981;28;20118;-72
2021/12/27 08:35:50;;;;;;;17.15;8.68;;;;;;;-0.46;68.39;99970.94;5075093;28;20032;-72
2021/12/27 08:38:18;;;;;;;20.90;8.70;;;;;;;-0.45;68.09;99972.66;5075062;28;20060;-72
2021/12/27 08:40:43;;;;;;;16.00;8.65;;;;;;;-0.41;69.17;99974.22;5057179;28;20025;-72
2021/12/27 08:43:09;;;;;;;16.95;8.38;;;;;;;-0.46;71.05;99961.25;5075011;28;20047;-73
2021/12/27 08:45:34;;;;;;;20.27;9.13;;;;;;;-0.34;71.59;99978.25;5074619;28;20028;-72
2021/12/27 08:48:00;;;;;;;17.48;9.32;;;;;;;-0.34;71.32;99979.09;5074735;28;20103;-72
2021/12/27 08:50:25;;;;;;;17.88;8.27;;;;;;;-0.33;71.41;99975.53;5074822;28;20036;-72
2021/12/27 08:52:51;;;;;;;15.27;9.45;;;;;;;-0.36;72.15;99973.06;5074914;28;20032;-73
2021/12/27 08:55:16;;;;;;;20.58;9.38;;;;;;;-0.27;73.39;99992.81;5074546;28;20043;-73
2021/12/27 08:57:42;;;;;;;20.70;10.27;;;;;;;-0.26;73.33;99983.97;5074896;28;20020;-73
2021/12/27 09:00:11;;;;;;;23.92;10.77;;;;;;;-0.24;73.13;99982.13;5074823;28;20028;-72
2021/12/27 09:02:37;;;;;;;20.70;9.93;;;;;;;-0.22;73.08;99981.13;5057812;28;20024;-72
2021/12/27 09:05:04;;;;;;;17.67;9.48;;;;;;;-0.27;72.28;99966.47;5075548;28;20102;-71
2021/12/27 09:07:29;;;;;;;16.88;9.23;;;;;;;-0.19;72.45;99980.13;5075737;28;20412;-73
2021/12/27 09:09:55;;;;;;;19.85;10.15;;;;;;;-0.24;73.25;99961.06;5057632;28;20028;-73
2021/12/27 09:12:20;;;;;;;21.38;9.73;;;;;;;-0.12;74.09;99974.47;5075649;28;20032;-72
2021/12/27 09:14:46;;;;;;;21.48;9.70;;;;;;;-0.14;75.00;99972.84;5075302;28;20045;-73
2021/12/27 09:17:11;;;;;;;21.08;9.68;;;;;;;-0.07;75.22;99985.63;5075781;28;20027;-73
2021/12/27 09:19:37;;;;;;;15.85;9.35;;;;;;;-0.07;74.29;99977.72;5075350;28;20051;-72
2021/12/27 09:22:02;;;;;;;20.35;9.20;;;;;;;-0.06;74.48;99984.69;5075587;28;20440;-71
2021/12/27 09:24:28;;;;;;;20.67;10.05;;;;;;;-0.16;74.49;99962.38;5057247;28;20115;-72
2021/12/27 09:26:54;;;;;;;20.17;10.40;;;;;;;-0.04;75.47;99976.72;5075085;28;20074;-73
2021/12/27 09:29:20;;;;;;;21.02;10.32;;;;;;;-0.05;76.18;99967.97;5075129;28;20071;-72
2021/12/27 09:31:45;;;;;;;23.08;11.45;;;;;;;0.04;76.67;99977.19;5075321;28;20508;-72
2021/12/27 09:34:11;;;;;;;20.73;10.40;;;;;;;-0.01;76.61;99973.94;5075095;28;20063;-72
2021/12/27 09:36:37;;;;;;;17.80;9.48;;;;;;;-0.01;76.65;99973.94;5075180;28;20062;-72
2021/12/27 09:39:04;;;;;;;16.45;9.50;;;;;;;0.03;76.48;99980.75;5074987;28;20024;-72
2021/12/27 09:41:29;;;;;;;19.00;9.90;;;;;;;-0.04;76.44;99964.41;5074881;28;20025;-72
2021/12/27 09:43:55;;;;;;;18.63;9.77;;;;;;;0.02;77.14;99971.13;5074539;28;20029;-72
2021/12/27 09:46:22;;;;;;;19.75;9.88;;;;;;;0.04;77.30;99975.41;5074544;28;20028;-72
2021/12/27 09:48:49;;;;;;;19.38;9.02;;;;;;;-0.06;77.77;99957.50;5074262;28;20465;-71
2021/12/27 09:51:16;;;;;;;23.55;10.27;;;;;;;0.08;77.80;99978.75;5073641;28;20054;-72
2021/12/27 09:53:42;;;;;;;16.67;9.10;;;;;;;0.09;78.29;99972.53;5073193;28;20031;-73
2021/12/27 09:56:09;;;;;;;16.00;8.75;;;;;;;0.11;78.54;99973.31;5071751;28;20029;-72
2021/12/27 09:58:35;;;;;;;20.30;9.77;;;;;;;0.10;78.86;99968.13;5071368;28;20017;-73
2021/12/27 10:01:03;;;;;;;17.30;8.68;;;;;;;0.12;78.84;99967.09;5053315;28;20043;-74
2021/12/27 10:03:30;;;;;;;17.02;9.20;;;;;;;0.09;79.97;99967.25;5070971;28;20059;-74
2021/12/27 10:06:08;;;;;;;22.92;10.45;;;;;;;0.10;81.12;99968.97;5071176;28;20075;-74
2021/12/27 10:08:34;;;;;;;18.50;9.45;;;;;;;0.09;80.76;99966.44;5070519;28;20033;-73
2021/12/27 10:10:59;;;;;;;18.45;9.65;;;;;;;0.17;81.06;99965.09;5070877;28;20123;-73
2021/12/27 10:13:24;;;;;;;17.90;10.27;;;;;;;0.15;81.69;99972.22;5070798;28;20048;-74
2021/12/27 10:15:50;;;;;;;17.83;9.48;;;;;;;0.12;82.48;99958.38;5070691;28;20033;-73
2021/12/27 10:18:17;;;;;;;20.17;10.02;;;;;;;0.16;83.18;99962.53;5052753;28;20465;-74
2021/12/27 10:20:44;;;;;;;18.15;9.70;;;;;;;0.17;83.92;99961.59;5070561;28;20077;-73
2021/12/27 10:23:10;;;;;;;17.50;8.90;;;;;;;0.19;84.33;99950.03;5052399;28;20445;-73
2021/12/27 10:25:36;;;;;;;15.85;8.57;;;;;;;0.20;84.38;99962.31;5070662;28;20029;-73
2021/12/27 10:28:03;;;;;;;15.25;8.23;;;;;;;0.23;84.13;99966.56;5070480;28;20489;-74
2021/12/27 10:30:32;;;;;;;13.43;8.23;;;;;;;0.22;84.24;99960.44;5070491;28;20028;-73
2021/12/27 10:33:20;;;;;;;15.73;8.40;;;;;;;0.25;84.61;99962.91;5052401;28;20041;-72
2021/12/27 10:35:49;;;;;;;14.57;7.68;;;;;;;0.28;84.93;99965.38;5070448;28;20033;-73
2021/12/27 10:38:31;;;;;;;19.20;9.70;;;;;;;0.31;85.90;99952.03;5070168;28;20532;-72
2021/12/27 10:40:58;;;;;;;18.52;8.90;;;;;;;0.35;86.34;99950.94;5071567;28;20108;-73
2021/12/27 10:43:40;;;;;;;18.98;8.63;;;;;;;0.34;86.27;99945.75;5071157;28;20423;-73
2021/12/27 10:46:11;;;;;;;16.25;7.88;;;;;;;0.38;86.43;99945.50;5071278;28;20032;-72
2021/12/27 10:48:40;;;;;;;14.45;7.70;;;;;;;0.46;86.73;99942.47;5071111;28;20029;-72
2021/12/27 10:51:06;;;;;;;15.98;8.57;;;;;;;0.44;86.78;99944.34;5071143;28;20039;-72
2021/12/27 10:53:53;;;;;;;15.45;8.20;;;;;;;0.45;87.38;99930.22;5071181;28;20522;-72
2021/12/27 10:56:22;;;;;;;18.02;8.50;;;;;;;0.46;87.43;99929.28;5071003;28;20068;-71
2021/12/27 10:58:53;;;;;;;16.25;9.38;;;;;;;0.49;87.79;99918.56;5071391;28;20028;-71
2021/12/27 11:01:21;;;;;;;15.57;9.10;;;;;;;0.52;87.39;99932.47;5071188;28;20044;-71
2021/12/27 11:03:49;;;;;;;16.80;10.43;;;;;;;0.55;87.25;99936.72;5071266;28;20489;-70
2021/12/27 11:06:19;;;;;;;16.67;8.40;;;;;;;0.53;87.81;99928.03;5070921;28;20120;-70
2021/12/27 11:08:46;;;;;;;17.45;9.68;;;;;;;0.55;87.94;99924.34;5070902;28;20032;-70
2021/12/27 11:11:13;;;;;;;17.70;8.57;;;;;;;0.54;89.24;99917.41;5070722;28;20050;-70
2021/12/27 11:13:39;;;;;;;14.75;8.55;;;;;;;0.59;89.61;99915.38;5071080;28;20058;-70
2021/12/27 11:16:05;;;;;;;18.67;9.25;;;;;;;0.59;89.53;99917.16;5071060;28;20059;-69
2021/12/27 11:18:31;;;;;;;17.50;8.65;;;;;;;0.65;90.04;99916.81;5053322;28;20036;-70
2021/12/27 11:21:00;;;;;;;16.38;8.75;;;;;;;0.64;90.31;99908.03;5071211;28;20105;-69
2021/12/27 11:23:27;;;;;;;19.15;9.55;;;;;;;0.68;90.55;99912.22;5070722;28;20161;-71
2021/12/27 11:26:05;;;;;;;15.55;8.30;;;;;;;0.70;90.55;99912.13;5071210;28;20526;-71
2021/12/27 11:28:35;;;;;;;17.80;8.85;;;;;;;0.73;90.30;99914.59;5053123;28;20469;-71